Time;durP1;ratioP1;P1;durP2;ratioP2;P2;SDS_P1;SDS_P2;PMS_P1;PMS_P2;Temp;Humidity;BMP_temperature;BMP_pressure;BME280_temperature;BME280_humidity;BME280_pressure;Samples;Min_cycle;Max_cycle;Signal;HPM_P1;HPM_P2
2023/05/23 00:02:24;;;;;;;25.55;13.10;;;14.40;99.90;;;;;;5071436;28;20128;-72
2023/05/23 00:04:51;;;;;;;22.48;12.90;;;14.40;99.90;;;;;;5054959;28;20056;-72
2023/05/23 00:07:18;;;;;;;28.65;14.98;;;14.40;99.90;;;;;;5072877;28;20516;-72
2023/05/23 00:09:45;;;;;;;26.80;14.40;;;14.40;99.90;;;;;;5055120;28;20044;-71
2023/05/23 00:12:12;;;;;;;24.98;14.50;;;14.40;99.90;;;;;;5072838;28;20052;-72
2023/05/23 00:14:39;;;;;;;26.30;14.02;;;14.40;99.90;;;;;;5055404;28;20052;-72
2023/05/23 00:17:09;;;;;;;19.40;11.75;;;14.40;99.90;;;;;;5055362;28;20044;-72
2023/05/23 00:19:36;;;;;;;22.52;12.20;;;14.40;99.90;;;;;;5053153;28;20056;-72
2023/05/23 00:22:03;;;;;;;23.48;12.60;;;14.40;99.90;;;;;;5072804;28;20044;-72
2023/05/23 00:24:30;;;;;;;19.40;12.02;;;14.40;99.90;;;;;;5072908;28;20491;-72
2023/05/23 00:26:57;;;;;;;24.98;12.75;;;14.40;99.90;;;;;;5072490;28;20095;-72
2023/05/23 00:29:24;;;;;;;23.02;11.55;;;14.40;99.90;;;;;;5073028;28;20093;-72
2023/05/23 00:31:51;;;;;;;21.30;12.80;;;14.30;99.90;;;;;;5053051;28;20458;-72
2023/05/23 00:34:19;;;;;;;22.33;11.82;;;14.30;99.90;;;;;;5054203;28;20052;-72
2023/05/23 00:36:49;;;;;;;16.17;12.55;;;14.20;99.90;;;;;;5054578;28;20060;-73
2023/05/23 00:39:18;;;;;;;22.65;12.95;;;14.30;99.90;;;;;;5072737;28;20488;-72
2023/05/23 00:41:46;;;;;;;16.13;12.17;;;14.30;99.90;;;;;;5054288;28;20053;-72
2023/05/23 00:44:13;;;;;;;20.55;12.30;;;14.30;99.90;;;;;;5054794;28;20173;-72
2023/05/23 00:46:41;;;;;;;17.65;11.18;;;14.30;99.90;;;;;;5053922;28;20503;-72
2023/05/23 00:49:08;;;;;;;17.27;11.68;;;14.30;99.90;;;;;;5072623;28;20051;-72
2023/05/23 00:51:36;;;;;;;19.90;10.02;;;14.20;99.90;;;;;;5053174;28;20048;-72
2023/05/23 00:54:05;;;;;;;17.00;9.88;;;14.20;99.90;;;;;;5054646;28;20055;-72
2023/05/23 00:56:32;;;;;;;20.88;10.05;;;14.20;99.90;;;;;;5073489;28;20095;-73
2023/05/23 00:59:00;;;;;;;15.20;8.38;;;14.20;99.90;;;;;;5074128;28;20044;-72
2023/05/23 01:01:27;;;;;;;12.80;8.40;;;14.20;99.90;;;;;;5054418;28;20128;-72
2023/05/23 01:03:55;;;;;;;16.13;8.20;;;14.20;99.90;;;;;;5054769;28;20475;-72
2023/05/23 01:06:22;;;;;;;14.90;8.48;;;14.20;99.90;;;;;;5070569;28;20052;-73
2023/05/23 01:08:51;;;;;;;14.85;8.25;;;14.10;99.90;;;;;;5053463;28;20060;-72
2023/05/23 01:11:26;;;;;;;13.60;7.22;;;14.10;99.90;;;;;;5054612;28;20049;-72
2023/05/23 01:14:00;;;;;;;13.27;6.50;;;14.00;99.90;;;;;;5070804;28;20045;-72
2023/05/23 01:16:36;;;;;;;10.23;6.28;;;14.10;99.90;;;;;;5070404;28;20044;-72
2023/05/23 01:19:17;;;;;;;14.57;7.00;;;14.10;99.90;;;;;;5053085;28;20049;-72
2023/05/23 01:21:53;;;;;;;19.08;7.03;;;14.00;99.90;;;;;;5053557;28;20048;-72
2023/05/23 01:24:36;;;;;;;14.63;7.15;;;14.00;99.90;;;;;;5053527;28;20101;-72
2023/05/23 01:27:12;;;;;;;20.40;8.13;;;14.00;99.90;;;;;;5054057;28;20055;-72
2023/05/23 01:29:46;;;;;;;19.08;8.68;;;13.90;99.90;;;;;;5053460;28;20091;-72
2023/05/23 01:32:15;;;;;;;26.67;9.10;;;13.90;99.90;;;;;;5052978;28;20109;-72
2023/05/23 01:34:43;;;;;;;28.23;9.27;;;13.80;99.90;;;;;;5052574;28;20447;-72
2023/05/23 01:37:13;;;;;;;21.27;8.63;;;13.70;99.90;;;;;;5071379;28;20052;-72
2023/05/23 01:39:40;;;;;;;20.98;9.13;;;13.70;99.90;;;;;;5072414;28;20040;-72
2023/05/23 01:42:08;;;;;;;27.90;10.48;;;13.70;99.90;;;;;;5051943;28;20052;-73
2023/05/23 01:44:36;;;;;;;29.85;11.57;;;13.60;99.90;;;;;;5053426;28;20060;-72
2023/05/23 01:47:07;;;;;;;19.75;10.32;;;13.60;99.90;;;;;;5071900;28;20045;-72
2023/05/23 01:49:36;;;;;;;27.10;10.57;;;13.50;99.90;;;;;;5071781;28;20495;-71
2023/05/23 01:52:04;;;;;;;24.30;10.27;;;13.50;99.90;;;;;;5053327;28;20057;-73
2023/05/23 01:54:34;;;;;;;21.77;9.98;;;13.40;99.90;;;;;;5071947;28;20062;-74
2023/05/23 01:57:02;;;;;;;23.67;9.32;;;13.40;99.90;;;;;;5051630;28;20055;-73
2023/05/23 01:59:29;;;;;;;23.13;10.25;;;13.40;99.90;;;;;;5075241;28;20041;-73
2023/05/23 02:01:56;;;;;;;21.55;9.63;;;13.40;99.90;;;;;;5058011;28;20059;-73
2023/05/23 02:04:24;;;;;;;22.55;10.02;;;13.30;99.90;;;;;;5057440;28;20051;-73
2023/05/23 02:06:51;;;;;;;26.65;9.63;;;13.30;99.90;;;;;;5057748;28;20060;-72
2023/05/23 02:09:18;;;;;;;23.90;9.05;;;13.30;99.90;;;;;;5075679;28;20060;-71
2023/05/23 02:11:45;;;;;;;22.35;8.95;;;13.20;99.90;;;;;;5057171;28;20488;-71
2023/05/23 02:14:12;;;;;;;17.13;8.13;;;13.20;99.90;;;;;;5057752;28;20053;-72
2023/05/23 02:16:39;;;;;;;21.02;8.43;;;13.20;99.90;;;;;;5057596;28;20094;-72
2023/05/23 02:19:06;;;;;;;22.83;8.77;;;13.20;99.90;;;;;;5056726;28;20044;-72
2023/05/23 02:21:34;;;;;;;20.80;7.93;;;13.20;99.90;;;;;;5075378;28;20044;-71
2023/05/23 02:24:01;;;;;;;28.83;8.25;;;13.20;99.90;;;;;;5075318;28;20048;-72
2023/05/23 02:26:28;;;;;;;20.40;8.45;;;13.10;99.90;;;;;;5056625;28;20052;-71
2023/05/23 02:28:55;;;;;;;22.55;8.80;;;13.10;99.90;;;;;;5057029;28;20052;-73
2023/05/23 02:31:22;;;;;;;18.52;8.30;;;13.00;99.90;;;;;;5075443;28;20105;-72
2023/05/23 02:33:49;;;;;;;19.92;8.82;;;13.60;99.90;;;;;;5056867;28;20094;-72
2023/05/23 02:36:16;;;;;;;19.23;7.55;;;12.90;99.90;;;;;;5055311;28;20064;-72
2023/05/23 02:38:44;;;;;;;27.67;8.65;;;12.80;99.90;;;;;;5057102;28;20048;-72
2023/05/23 02:41:11;;;;;;;19.50;7.90;;;12.80;99.90;;;;;;5056438;28;20056;-72
2023/05/23 02:43:38;;;;;;;22.55;8.35;;;12.80;99.90;;;;;;5056994;28;20511;-72
2023/05/23 02:46:05;;;;;;;18.15;7.38;;;12.80;99.90;;;;;;5057171;28;20040;-72
2023/05/23 02:48:32;;;;;;;24.38;7.93;;;12.70;99.90;;;;;;5056218;28;20089;-72
2023/05/23 02:50:59;;;;;;;24.73;9.02;;;12.70;99.90;;;;;;5057059;28;20400;-72
2023/05/23 02:53:26;;;;;;;18.70;7.68;;;12.60;99.90;;;;;;5056981;28;20055;-72
2023/05/23 02:55:54;;;;;;;21.30;8.15;;;12.60;99.90;;;;;;5056399;28;20068;-72
2023/05/23 02:58:21;;;;;;;25.50;7.95;;;12.60;99.90;;;;;;5054812;28;20052;-71
2023/05/23 03:00:48;;;;;;;17.23;7.45;;;12.60;99.90;;;;;;5055998;28;20048;-71
2023/05/23 03:03:15;;;;;;;20.02;8.07;;;12.60;99.90;;;;;;5054509;28;20515;-72
2023/05/23 03:05:42;;;;;;;21.10;8.05;;;12.60;99.90;;;;;;5074553;28;20044;-72
2023/05/23 03:08:09;;;;;;;19.45;8.13;;;12.60;99.90;;;;;;5073639;28;20071;-72
2023/05/23 03:10:37;;;;;;;21.23;7.55;;;12.70;99.90;;;;;;5054769;28;20557;-72
2023/05/23 03:13:05;;;;;;;19.73;7.22;;;12.60;99.90;;;;;;5055402;28;20048;-72
2023/05/23 03:15:32;;;;;;;19.70;7.80;;;12.60;99.90;;;;;;5071901;28;20056;-73
2023/05/23 03:17:59;;;;;;;19.08;6.97;;;12.60;99.90;;;;;;5074342;28;20056;-72
2023/05/23 03:20:26;;;;;;;15.00;6.80;;;12.80;99.90;;;;;;5074259;28;20044;-73
2023/05/23 03:22:53;;;;;;;19.25;6.55;;;12.60;99.90;;;;;;5055585;28;20060;-73
2023/05/23 03:25:20;;;;;;;18.80;6.65;;;12.70;99.90;;;;;;5055934;28;20044;-73
2023/05/23 03:27:47;;;;;;;16.85;6.05;;;12.60;99.90;;;;;;5054045;28;20442;-71
2023/05/23 03:30:15;;;;;;;17.10;6.43;;;12.60;99.90;;;;;;5055204;28;20044;-71
2023/05/23 03:32:42;;;;;;;19.70;6.55;;;12.60;99.90;;;;;;5056198;28;20056;-71
2023/05/23 03:35:10;;;;;;;11.55;5.63;;;12.60;99.90;;;;;;5055720;28;20511;-71
2023/05/23 03:37:37;;;;;;;21.85;6.53;;;12.60;99.90;;;;;;5055434;28;20091;-71
2023/05/23 03:40:05;;;;;;;14.73;6.47;;;12.60;99.90;;;;;;5073897;28;20044;-72
2023/05/23 03:42:32;;;;;;;13.95;6.18;;;12.60;99.90;;;;;;5073791;28;20143;-72
2023/05/23 03:44:59;;;;;;;14.88;5.88;;;12.50;99.90;;;;;;5073351;28;20055;-72
2023/05/23 03:47:28;;;;;;;18.30;6.20;;;12.50;99.90;;;;;;5045697;28;20104;-72
2023/05/23 03:49:55;;;;;;;17.35;6.38;;;12.70;99.90;;;;;;5067861;28;20036;-72
2023/05/23 03:52:22;;;;;;;12.43;5.55;;;12.80;99.90;;;;;;5051876;28;20476;-72
2023/05/23 03:54:48;;;;;;;23.85;6.50;;;13.10;99.90;;;;;;5054600;28;20051;-73
2023/05/23 03:57:15;;;;;;;16.50;5.93;;;13.10;99.90;;;;;;5051984;28;20052;-73
2023/05/23 03:59:43;;;;;;;13.05;4.75;;;13.00;99.90;;;;;;5053821;28;20093;-73
2023/05/23 04:02:10;;;;;;;19.80;6.43;;;13.00;99.90;;;;;;5053057;28;20048;-73
2023/05/23 04:04:38;;;;;;;13.75;5.65;;;13.20;99.90;;;;;;5071943;28;20049;-72
2023/05/23 04:07:08;;;;;;;13.93;6.13;;;13.20;99.90;;;;;;5051454;28;20060;-73
2023/05/23 04:09:34;;;;;;;18.13;6.38;;;13.90;99.90;;;;;;5052626;28;20132;-73
2023/05/23 04:12:01;;;;;;;13.27;4.70;;;13.30;99.90;;;;;;5053685;28;20061;-73
2023/05/23 04:14:28;;;;;;;12.38;4.88;;;13.90;99.90;;;;;;5069504;28;20053;-73
2023/05/23 04:16:55;;;;;;;11.00;5.03;;;13.10;99.90;;;;;;5054059;28;20403;-73
2023/05/23 04:19:22;;;;;;;17.83;4.95;;;13.10;99.90;;;;;;5069527;28;20123;-73
2023/05/23 04:21:50;;;;;;;16.25;4.90;;;13.80;99.90;;;;;;5053840;28;20048;-73
2023/05/23 04:24:17;;;;;;;12.55;4.72;;;13.20;99.90;;;;;;5052372;28;20094;-73
2023/05/23 04:26:44;;;;;;;13.30;3.88;;;13.10;99.90;;;;;;5071237;28;20098;-73
2023/05/23 04:29:12;;;;;;;13.07;3.92;;;13.10;99.90;;;;;;5053229;28;20041;-74
2023/05/23 04:31:38;;;;;;;17.75;5.97;;;13.10;99.90;;;;;;5053850;28;20484;-73
2023/05/23 04:34:06;;;;;;;22.08;5.47;;;13.10;99.90;;;;;;5050329;28;20053;-72
2023/05/23 04:36:36;;;;;;;10.32;4.30;;;13.20;99.90;;;;;;5053830;28;20080;-74
2023/05/23 04:39:05;;;;;;;14.80;4.47;;;13.20;99.90;;;;;;5068680;28;20041;-73
2023/05/23 04:41:32;;;;;;;16.65;5.15;;;13.20;99.90;;;;;;5071990;28;20064;-72
2023/05/23 04:43:59;;;;;;;13.18;4.88;;;13.10;99.90;;;;;;5052071;28;20061;-72
2023/05/23 04:46:26;;;;;;;16.95;5.05;;;12.90;99.90;;;;;;5070980;28;20056;-72
2023/05/23 04:48:53;;;;;;;11.73;5.20;;;12.80;99.90;;;;;;5070187;28;20090;-73
2023/05/23 04:51:21;;;;;;;16.23;6.35;;;12.70;99.90;;;;;;5053125;28;20048;-72
2023/05/23 04:53:49;;;;;;;20.92;7.32;;;12.60;99.90;;;;;;5069152;28;20048;-74
2023/05/23 04:56:19;;;;;;;26.00;7.10;;;12.50;99.90;;;;;;5052080;28;20060;-73
2023/05/23 04:58:46;;;;;;;16.58;7.30;;;12.50;99.90;;;;;;5070169;28;20048;-73
2023/05/23 05:01:14;;;;;;;20.95;8.02;;;12.40;99.90;;;;;;5066923;28;20052;-73
2023/05/23 05:03:41;;;;;;;21.17;7.95;;;12.30;99.90;;;;;;5053632;28;20052;-74
2023/05/23 05:06:08;;;;;;;19.80;8.25;;;12.30;99.90;;;;;;5066362;28;20114;-74
2023/05/23 05:08:36;;;;;;;16.08;8.00;;;12.30;99.90;;;;;;5073176;28;20068;-74
2023/05/23 05:11:03;;;;;;;23.67;7.47;;;12.30;99.90;;;;;;5053201;28;20135;-72
2023/05/23 05:13:31;;;;;;;16.05;7.63;;;12.20;99.90;;;;;;5073806;28;20048;-73
2023/05/23 05:15:58;;;;;;;17.95;6.75;;;12.20;99.90;;;;;;5052078;28;20121;-73
2023/05/23 05:18:26;;;;;;;17.92;6.65;;;12.30;99.90;;;;;;5056128;28;20072;-73
2023/05/23 05:20:53;;;;;;;19.10;6.43;;;12.10;99.90;;;;;;5053987;28;20075;-72
2023/05/23 05:23:20;;;;;;;16.50;5.63;;;12.10;99.90;;;;;;5070611;28;20059;-71
2023/05/23 05:25:47;;;;;;;12.90;5.07;;;12.10;99.90;;;;;;5050841;28;20059;-72
2023/05/23 05:28:14;;;;;;;13.57;5.30;;;12.00;99.90;;;;;;5049315;28;20064;-72
2023/05/23 05:30:45;;;;;;;13.30;5.15;;;12.00;99.90;;;;;;5052150;28;20102;-72
2023/05/23 05:33:12;;;;;;;15.23;5.82;;;12.00;99.90;;;;;;5070534;28;20044;-73
2023/05/23 05:35:38;;;;;;;19.52;5.90;;;12.10;99.90;;;;;;5070179;28;20058;-73
2023/05/23 05:38:07;;;;;;;15.18;5.88;;;12.10;99.90;;;;;;5053505;28;20049;-73
2023/05/23 05:40:34;;;;;;;13.07;5.78;;;12.00;99.90;;;;;;5052593;28;20135;-72
2023/05/23 05:43:01;;;;;;;13.15;6.03;;;12.10;99.90;;;;;;5053476;28;20059;-73
2023/05/23 05:45:28;;;;;;;14.63;5.25;;;12.10;99.90;;;;;;5054144;28;20064;-74
2023/05/23 05:47:56;;;;;;;19.50;6.03;;;12.10;99.90;;;;;;5051989;28;20373;-72
2023/05/23 05:50:23;;;;;;;12.65;4.68;;;12.10;99.90;;;;;;5071176;28;20044;-73
2023/05/23 05:52:50;;;;;;;9.50;5.05;;;12.10;99.90;;;;;;5071943;28;20503;-73
2023/05/23 05:55:17;;;;;;;12.02;4.82;;;12.30;99.90;;;;;;5053445;28;20044;-70
2023/05/23 05:57:44;;;;;;;11.68;4.63;;;12.20;99.90;;;;;;5053230;28;20071;-73
2023/05/23 06:00:14;;;;;;;10.52;5.03;;;12.20;99.90;;;;;;5051701;28;20113;-70
2023/05/23 06:02:41;;;;;;;11.30;4.65;;;12.20;99.90;;;;;;5053908;28;20052;-73
2023/05/23 06:05:11;;;;;;;10.90;4.88;;;12.10;99.90;;;;;;5053266;28;20053;-73
2023/05/23 06:07:38;;;;;;;18.10;3.72;;;12.60;99.90;;;;;;5071569;28;20592;-74
2023/05/23 06:10:07;;;;;;;11.77;3.80;;;12.10;99.90;;;;;;5071738;28;20399;-72
2023/05/23 06:12:34;;;;;;;12.90;4.10;;;12.10;99.90;;;;;;5053465;28;20151;-73
2023/05/23 06:15:01;;;;;;;18.10;5.05;;;12.00;99.90;;;;;;5053484;28;20496;-73
2023/05/23 06:17:28;;;;;;;14.43;4.28;;;12.50;99.90;;;;;;5053893;28;20048;-73
2023/05/23 06:19:55;;;;;;;14.40;3.58;;;12.10;99.90;;;;;;5051353;28;20109;-73
2023/05/23 06:22:23;;;;;;;13.43;5.15;;;12.20;99.90;;;;;;5053550;28;20060;-73
2023/05/23 06:24:50;;;;;;;16.52;4.90;;;12.20;99.90;;;;;;5053005;28;20048;-73
2023/05/23 06:27:17;;;;;;;13.02;4.22;;;12.10;99.90;;;;;;5053540;28;20056;-73
2023/05/23 06:29:44;;;;;;;14.38;4.22;;;12.10;99.90;;;;;;5071241;28;20546;-73
2023/05/23 06:32:11;;;;;;;14.07;4.40;;;12.30;99.90;;;;;;5070989;28;20047;-73
2023/05/23 06:34:38;;;;;;;17.17;4.25;;;12.80;99.90;;;;;;5053473;28;20520;-74
2023/05/23 06:37:05;;;;;;;12.73;4.68;;;12.60;99.90;;;;;;5071392;28;20111;-74
2023/05/23 06:39:33;;;;;;;14.23;4.43;;;12.90;99.90;;;;;;5052971;28;20048;-73
2023/05/23 06:42:01;;;;;;;16.95;4.80;;;12.90;99.90;;;;;;5053854;28;20045;-72
2023/05/23 06:44:28;;;;;;;18.50;5.07;;;12.90;99.90;;;;;;5054193;28;20095;-73
2023/05/23 06:46:56;;;;;;;17.90;4.90;;;13.10;99.90;;;;;;5074286;28;20056;-73
2023/05/23 06:49:23;;;;;;;19.85;5.47;;;13.10;99.90;;;;;;5056877;28;20094;-73
2023/05/23 06:51:50;;;;;;;16.77;5.05;;;13.10;99.90;;;;;;5074964;28;20056;-74
2023/05/23 06:54:17;;;;;;;16.17;5.30;;;13.30;99.90;;;;;;5056066;28;20056;-73
2023/05/23 06:56:45;;;;;;;12.48;4.30;;;13.30;99.90;;;;;;5074892;28;20055;-72
2023/05/23 06:59:12;;;;;;;14.88;4.32;;;13.30;99.90;;;;;;5056789;28;20075;-72
2023/05/23 07:01:39;;;;;;;20.90;5.03;;;13.30;99.90;;;;;;5056521;28;20056;-72
2023/05/23 07:04:06;;;;;;;11.75;4.35;;;13.30;99.90;;;;;;5056549;28;20044;-72
2023/05/23 07:06:35;;;;;;;13.90;4.57;;;13.30;99.90;;;;;;5056770;28;20071;-73
2023/05/23 07:09:03;;;;;;;16.98;4.80;;;13.20;99.90;;;;;;5073862;28;20052;-74
2023/05/23 07:11:30;;;;;;;14.60;4.22;;;13.20;99.90;;;;;;5074418;28;20138;-73
2023/05/23 07:13:59;;;;;;;16.50;4.15;;;13.20;99.90;;;;;;5056213;28;20056;-73
2023/05/23 07:16:26;;;;;;;15.45;4.40;;;13.10;99.90;;;;;;5072489;28;20098;-72
2023/05/23 07:18:53;;;;;;;11.63;4.00;;;13.10;99.90;;;;;;5056619;28;20126;-73
2023/05/23 07:21:20;;;;;;;16.48;4.28;;;13.10;99.90;;;;;;5055896;28;20504;-72
2023/05/23 07:23:47;;;;;;;18.73;4.18;;;13.50;99.90;;;;;;5056326;28;20071;-73
2023/05/23 07:26:14;;;;;;;12.52;3.97;;;13.20;99.90;;;;;;5056276;28;20067;-73
2023/05/23 07:28:40;;;;;;;14.90;4.35;;;13.20;99.90;;;;;;5073676;28;20053;-73
2023/05/23 07:31:09;;;;;;;17.60;4.50;;;13.20;99.90;;;;;;5073738;28;20040;-72
2023/05/23 07:33:36;;;;;;;11.45;3.80;;;13.70;99.90;;;;;;5074228;28;20051;-73
2023/05/23 07:36:03;;;;;;;21.05;5.10;;;13.20;99.90;;;;;;5055187;28;20048;-72
2023/05/23 07:38:30;;;;;;;13.98;3.88;;;13.20;99.90;;;;;;5056164;28;20052;-73
2023/05/23 07:40:56;;;;;;;17.48;4.40;;;13.20;99.90;;;;;;5071806;28;20063;-72
2023/05/23 07:43:23;;;;;;;13.23;3.30;;;13.30;99.90;;;;;;5055415;28;20052;-73
2023/05/23 07:45:50;;;;;;;18.58;4.22;;;13.50;99.90;;;;;;5073824;28;20055;-73
2023/05/23 07:48:19;;;;;;;17.38;5.35;;;13.70;99.90;;;;;;5073802;28;20044;-73
2023/05/23 07:50:46;;;;;;;16.52;3.80;;;13.90;99.90;;;;;;5055256;28;20047;-73
2023/05/23 07:53:13;;;;;;;16.15;4.75;;;14.50;99.90;;;;;;5053719;28;20098;-73
2023/05/23 07:55:41;;;;;;;17.27;5.07;;;14.30;99.90;;;;;;5055279;28;20079;-73
2023/05/23 07:58:07;;;;;;;14.95;4.50;;;14.10;99.90;;;;;;5072851;28;20095;-73
2023/05/23 08:00:35;;;;;;;20.83;4.40;;;14.10;99.90;;;;;;5055631;28;20488;-73
2023/05/23 08:03:02;;;;;;;17.08;4.68;;;14.20;99.90;;;;;;5055325;28;20041;-72
2023/05/23 08:05:31;;;;;;;15.80;4.38;;;14.50;99.90;;;;;;5073476;28;20049;-73
2023/05/23 08:07:58;;;;;;;14.38;4.20;;;14.60;99.90;;;;;;5051987;28;20049;-73
2023/05/23 08:10:27;;;;;;;14.35;3.95;;;14.70;99.90;;;;;;5051697;28;20053;-74
2023/05/23 08:12:54;;;;;;;10.98;3.85;;;14.90;99.90;;;;;;5051961;28;20049;-74
2023/05/23 08:15:22;;;;;;;19.65;5.50;;;15.60;99.90;;;;;;5052123;28;20048;-74
2023/05/23 08:17:49;;;;;;;14.90;4.32;;;16.50;99.90;;;;;;5051395;28;20045;-74
2023/05/23 08:20:16;;;;;;;17.00;4.38;;;17.20;99.90;;;;;;5052940;28;20519;-73
2023/05/23 08:22:45;;;;;;;18.30;4.20;;;17.50;99.90;;;;;;5053084;28;20045;-73
2023/05/23 08:25:12;;;;;;;10.63;3.42;;;17.20;99.90;;;;;;5049586;28;20052;-73
2023/05/23 08:27:39;;;;;;;11.63;3.30;;;17.20;99.90;;;;;;5051782;28;20053;-73
2023/05/23 08:30:08;;;;;;;12.38;3.40;;;16.90;99.90;;;;;;5053096;28;20049;-74
2023/05/23 08:32:35;;;;;;;9.38;3.92;;;16.70;99.90;;;;;;5049191;28;20052;-74
2023/05/23 08:35:02;;;;;;;15.88;4.45;;;16.80;99.90;;;;;;5051789;28;20052;-72
2023/05/23 08:37:29;;;;;;;11.73;3.53;;;17.10;99.90;;;;;;5051683;28;20060;-73
2023/05/23 08:39:58;;;;;;;16.30;3.97;;;17.40;99.90;;;;;;5051049;28;20049;-73
2023/05/23 08:42:25;;;;;;;12.73;3.70;;;17.30;99.90;;;;;;5051549;28;20060;-73
2023/05/23 08:44:52;;;;;;;10.98;3.40;;;17.20;99.90;;;;;;5052986;28;20107;-74
2023/05/23 08:47:20;;;;;;;12.52;3.47;;;17.20;99.90;;;;;;5050899;28;20141;-74
2023/05/23 08:49:48;;;;;;;13.68;3.85;;;17.30;99.90;;;;;;5052643;28;20045;-74
2023/05/23 08:52:21;;;;;;;12.73;4.05;;;17.20;99.90;;;;;;5050231;28;20072;-73
2023/05/23 08:54:48;;;;;;;10.60;3.65;;;17.20;99.90;;;;;;5052799;28;20045;-73
2023/05/23 08:57:17;;;;;;;11.82;4.00;;;17.70;99.90;;;;;;5051240;28;20057;-73
2023/05/23 08:59:44;;;;;;;13.52;4.05;;;18.10;99.30;;;;;;5050590;28;20179;-73
2023/05/23 09:02:11;;;;;;;14.77;3.83;;;18.30;99.40;;;;;;5051004;28;20059;-73
2023/05/23 09:04:38;;;;;;;14.45;3.78;;;18.20;99.50;;;;;;5051493;28;20053;-73
2023/05/23 09:07:07;;;;;;;11.95;3.88;;;18.10;99.60;;;;;;5052520;28;20067;-73
2023/05/23 09:09:34;;;;;;;14.93;3.83;;;18.20;99.00;;;;;;5072562;28;20407;-73
2023/05/23 09:12:02;;;;;;;14.60;5.03;;;17.90;99.20;;;;;;5072336;28;20040;-73
2023/05/23 09:14:30;;;;;;;12.63;3.42;;;17.70;99.50;;;;;;5053927;28;20102;-73
2023/05/23 09:17:01;;;;;;;15.82;3.90;;;17.50;99.30;;;;;;5054112;28;20117;-72
2023/05/23 09:19:29;;;;;;;15.95;3.95;;;17.40;98.40;;;;;;5072289;28;20127;-72
2023/05/23 09:21:56;;;;;;;15.00;3.80;;;17.40;98.90;;;;;;5053521;28;20051;-73
2023/05/23 09:24:23;;;;;;;9.65;3.10;;;17.90;99.30;;;;;;5072338;28;20064;-73
2023/05/23 09:26:50;;;;;;;13.40;3.17;;;17.90;99.30;;;;;;5054608;28;20048;-74
2023/05/23 09:29:20;;;;;;;10.80;3.15;;;17.90;99.00;;;;;;5053781;28;20067;-73
2023/05/23 09:31:49;;;;;;;15.27;3.33;;;18.10;98.10;;;;;;5056455;28;20044;-74
2023/05/23 09:34:16;;;;;;;10.93;3.30;;;18.70;97.20;;;;;;5056822;28;20075;-74
2023/05/23 09:36:44;;;;;;;12.23;3.67;;;19.20;97.00;;;;;;5073777;28;20048;-73
2023/05/23 09:39:12;;;;;;;11.65;3.63;;;19.60;96.70;;;;;;5073878;28;20045;-74
2023/05/23 09:41:39;;;;;;;12.88;3.75;;;19.30;95.90;;;;;;5053312;28;20048;-74
2023/05/23 09:44:08;;;;;;;13.40;3.63;;;19.20;96.20;;;;;;5059152;28;20476;-74
2023/05/23 09:46:37;;;;;;;15.30;3.97;;;18.80;95.60;;;;;;5072493;28;20053;-73
2023/05/23 09:49:15;;;;;;;9.70;3.30;;;18.50;96.60;;;;;;5051592;28;20510;-73
2023/05/23 09:51:42;;;;;;;8.18;2.90;;;18.70;95.70;;;;;;5070600;28;20041;-73
2023/05/23 09:54:09;;;;;;;10.07;2.92;;;19.30;96.00;;;;;;5054182;28;20044;-74
2023/05/23 09:56:42;;;;;;;13.65;3.13;;;20.10;95.10;;;;;;5071319;28;20053;-74
2023/05/23 09:59:11;;;;;;;11.57;3.60;;;19.90;93.50;;;;;;5053333;28;20044;-73
2023/05/23 10:01:38;;;;;;;16.87;3.13;;;20.20;94.40;;;;;;5051928;28;20044;-73
2023/05/23 10:04:07;;;;;;;11.20;3.10;;;20.20;94.20;;;;;;5053322;28;20786;-73
2023/05/23 10:06:41;;;;;;;8.35;2.70;;;20.10;93.30;;;;;;5071861;28;20492;-73
2023/05/23 10:09:14;;;;;;;11.45;2.92;;;20.20;92.50;;;;;;5033689;28;20060;-74
2023/05/23 10:12:44;;;;;;;10.15;2.88;;;20.30;93.10;;;;;;5048968;28;20048;-74
2023/05/23 10:15:15;;;;;;;11.00;2.90;;;20.40;92.50;;;;;;5052061;28;20570;-74
2023/05/23 10:18:05;;;;;;;12.60;3.15;;;20.20;92.20;;;;;;5032595;28;20119;-72
2023/05/23 10:20:36;;;;;;;12.95;4.00;;;20.10;92.30;;;;;;5054180;28;20049;-74
2023/05/23 10:23:04;;;;;;;14.20;3.22;;;19.70;92.40;;;;;;5037537;28;20053;-72
2023/05/23 10:25:31;;;;;;;12.48;2.95;;;19.40;92.90;;;;;;5054647;28;20489;-74
2023/05/23 10:28:00;;;;;;;8.57;3.10;;;19.40;93.00;;;;;;5037237;28;20053;-74
2023/05/23 10:30:28;;;;;;;10.80;3.42;;;19.00;93.10;;;;;;5054969;28;20427;-73
2023/05/23 10:32:56;;;;;;;9.55;2.75;;;19.00;93.50;;;;;;5036863;28;20053;-73
2023/05/23 10:35:32;;;;;;;15.75;3.13;;;19.20;93.40;;;;;;5055374;28;20048;-73
2023/05/23 10:38:07;;;;;;;8.13;3.10;;;19.10;93.00;;;;;;5054679;28;20044;-73
2023/05/23 10:40:46;;;;;;;17.25;3.13;;;18.80;92.90;;;;;;5055130;28;20134;-73
2023/05/23 10:43:20;;;;;;;8.70;2.72;;;18.50;92.80;;;;;;5035671;28;20049;-74
2023/05/23 10:45:49;;;;;;;10.02;2.75;;;18.80;93.20;;;;;;5036745;28;20049;-74
2023/05/23 10:48:23;;;;;;;10.10;3.10;;;18.90;92.40;;;;;;5052639;28;20055;-74
2023/05/23 10:51:04;;;;;;;9.63;3.28;;;19.10;92.70;;;;;;5052782;28;20075;-74
2023/05/23 10:53:34;;;;;;;10.68;3.47;;;18.70;91.70;;;;;;5036496;28;20056;-74
2023/05/23 10:56:02;;;;;;;12.75;3.75;;;18.70;92.50;;;;;;5053106;28;20044;-73
2023/05/23 10:58:30;;;;;;;7.95;3.05;;;18.80;92.80;;;;;;5054555;28;20600;-73
2023/05/23 11:01:02;;;;;;;11.90;3.25;;;18.60;92.90;;;;;;5036200;28;20055;-74
2023/05/23 11:03:34;;;;;;;9.52;3.40;;;18.60;92.30;;;;;;5036855;28;20080;-74
2023/05/23 11:06:01;;;;;;;7.40;2.90;;;19.10;92.20;;;;;;5034516;28;20057;-73
2023/05/23 11:08:31;;;;;;;10.02;3.15;;;19.50;91.70;;;;;;5047207;28;20118;-74
2023/05/23 11:11:01;;;;;;;12.07;3.60;;;19.60;91.70;;;;;;5053412;28;20049;-73
2023/05/23 11:13:58;;;;;;;12.25;3.33;;;19.20;91.10;;;;;;5052542;28;20053;-73
2023/05/23 11:16:30;;;;;;;13.05;3.40;;;19.00;92.30;;;;;;5052330;28;20399;-74
2023/05/23 11:19:26;;;;;;;13.90;3.60;;;18.60;92.60;;;;;;5054122;28;20091;-73
2023/05/23 11:21:55;;;;;;;10.90;3.67;;;18.50;92.80;;;;;;5053586;28;20068;-73
2023/05/23 11:24:23;;;;;;;10.40;2.80;;;18.90;93.70;;;;;;5054153;28;20504;-74
2023/05/23 11:26:59;;;;;;;10.00;2.70;;;19.60;92.90;;;;;;5053340;28;20048;-74
2023/05/23 11:29:28;;;;;;;9.50;3.10;;;20.00;92.20;;;;;;5052652;28;20052;-73
2023/05/23 11:31:55;;;;;;;27.05;4.22;;;20.20;91.50;;;;;;5052168;28;20040;-74
2023/05/23 11:34:22;;;;;;;13.77;3.15;;;19.70;91.70;;;;;;5053389;28;20049;-74
2023/05/23 11:36:54;;;;;;;10.20;3.53;;;19.70;92.20;;;;;;5053177;28;20535;-73
2023/05/23 11:39:21;;;;;;;10.48;3.20;;;19.70;92.10;;;;;;5050562;28;20107;-73
2023/05/23 11:42:00;;;;;;;15.35;3.10;;;19.80;92.20;;;;;;5053436;28;20064;-74
2023/05/23 11:44:27;;;;;;;11.07;2.72;;;20.40;91.20;;;;;;5053881;28;20425;-74
2023/05/23 11:47:01;;;;;;;8.35;2.92;;;20.40;90.80;;;;;;5054119;28;20045;-73
2023/05/23 11:49:29;;;;;;;10.65;3.83;;;20.20;90.70;;;;;;5052189;28;20132;-73
2023/05/23 11:51:56;;;;;;;24.75;3.42;;;20.20;91.10;;;;;;5052733;28;20102;-73
2023/05/23 11:54:24;;;;;;;10.75;2.90;;;20.30;91.20;;;;;;5052684;28;20114;-73
2023/05/23 11:56:51;;;;;;;9.80;2.83;;;21.20;90.40;;;;;;5052288;28;20140;-74
2023/05/23 11:59:21;;;;;;;12.75;2.95;;;21.60;89.10;;;;;;5052419;28;20515;-73
2023/05/23 12:01:48;;;;;;;8.75;3.10;;;21.90;88.10;;;;;;5053529;28;20044;-74
2023/05/23 12:04:15;;;;;;;7.40;2.83;;;22.00;87.20;;;;;;5052829;28;20056;-74
2023/05/23 12:06:42;;;;;;;9.30;3.10;;;21.90;88.00;;;;;;5052380;28;20052;-74
2023/05/23 12:09:11;;;;;;;10.65;3.15;;;21.20;86.70;;;;;;5073106;28;20048;-73
2023/05/23 12:11:40;;;;;;;8.13;2.90;;;21.40;88.10;;;;;;5055100;28;20518;-73
2023/05/23 12:14:07;;;;;;;9.20;2.83;;;22.00;86.80;;;;;;5055001;28;20128;-74
2023/05/23 12:16:36;;;;;;;8.95;2.40;;;21.90;86.30;;;;;;5054960;28;20056;-74
2023/05/23 12:19:05;;;;;;;8.57;2.55;;;21.80;84.50;;;;;;5073221;28;20040;-73
2023/05/23 12:21:43;;;;;;;11.27;3.20;;;22.30;85.80;;;;;;5055295;28;20114;-72
2023/05/23 12:24:17;;;;;;;7.72;3.10;;;22.20;84.70;;;;;;5072340;28;20047;-74
2023/05/23 12:26:48;;;;;;;10.95;3.67;;;21.60;86.20;;;;;;5055223;28;20060;-73
2023/05/23 12:29:16;;;;;;;9.73;3.05;;;21.60;87.20;;;;;;5055047;28;20145;-73
2023/05/23 12:31:44;;;;;;;10.25;2.55;;;21.80;87.10;;;;;;5054401;28;20047;-73
2023/05/23 12:34:12;;;;;;;8.07;2.35;;;21.50;87.10;;;;;;5072852;28;20044;-74
2023/05/23 12:36:41;;;;;;;12.25;2.60;;;22.00;86.40;;;;;;5055250;28;20056;-74
2023/05/23 12:39:09;;;;;;;9.00;3.28;;;22.40;85.20;;;;;;5054390;28;20045;-73
2023/05/23 12:41:36;;;;;;;11.70;2.85;;;22.00;85.10;;;;;;5054565;28;20496;-72
2023/05/23 12:44:03;;;;;;;8.57;2.90;;;21.70;85.00;;;;;;5070484;28;20044;-74